Radiosonde details



Informationen :

Serial : D26002586
Type : Graw DFM
Frequency : 403.210MHz
Launchsite : Spokane
Nearest town : Newport, US (37.5km)

Altitude (Max) : 36284m at 2026-09-02 07:06:34
Speed (Max) : 124km/h at altitude 12006m

Average speed : 50km/h
Average ascent rate : 5m/s
Average descent rate : -14m/s
Ascent rate (Max) : 14.2m/s
Descent rate (Max): -195.2m/s

First frame :
WB7NNF at 2026-09-02 05:16:13 at altitude 4036m (OG: 3994m)
Last frame :
WB7NNF at 2026-09-02 07:42:02 at altitude 10415m (OG: 10373m)

Flighttime : 2h25m49s
Ascent time : 1h50m21s
Descent time : 35m28s
Uptime : -
Killtimer : -

Distance (Straight line distance): 89km

Distance (Route):


Frames : 348


Measurement :

Temperature : -50.0°C
Humidity : 0%
Pressure : 0hPa


Vertical profile (SkewT) :


Elevation profile :



Receiving stations :


Receiver Frames First received Last received
WB7NNF 348 2026-09-02 05:16:13 2026-09-02 07:42:02

Share per receiver :



All frames :


Receiver Date Latitude Longitude Direction Speed Altitude Climb Temperature Humidity Pressure Voltage Killtimer Uptime BKT XDATA
WB7NNF2026-09-02 07:42:0248.48811-117.2494391km/h10415m-4.8m/s-50.0°C0%0hPa0V00:00:0000:00:0000:00:00
WB7NNF2026-09-02 07:41:3448.48174-117.2496689km/h10554m-5.0m/s-51.3°C0%0hPa0V00:00:0000:00:0000:00:00
WB7NNF2026-09-02 07:40:5648.47297-117.24948358°88km/h10752m-5.4m/s-53.0°C0%0hPa0V00:00:0000:00:0000:00:00
WB7NNF2026-09-02 07:39:4648.45758-117.24789357°84km/h11124m-5.5m/s-56.1°C0%0hPa0V00:00:0000:00:0000:00:00
WB7NNF2026-09-02 07:39:2348.45273-117.24728354°82km/h11252m-5.7m/s-56.8°C0%0hPa0V00:00:0000:00:0000:00:00
WB7NNF2026-09-02 07:39:0248.44831-117.24644355°93km/h11366m-5.8m/s-56.2°C0%0hPa0V00:00:0000:00:0000:00:00
WB7NNF2026-09-02 07:38:4048.44288-117.24595358°106km/h11492m-6.0m/s-56.6°C0%0hPa0V00:00:0000:00:0000:00:00
WB7NNF2026-09-02 07:38:2048.43732-117.24539357°108km/h11613m-6.1m/s-57.5°C0%0hPa0V00:00:0000:00:0000:00:00
WB7NNF2026-09-02 07:37:5948.43160-117.24492358°110km/h11734m-5.8m/s-58.5°C0%0hPa0V00:00:0000:00:0000:00:00
WB7NNF2026-09-02 07:37:3748.42524-117.24417355°119km/h11859m-5.4m/s-58.9°C0%0hPa0V00:00:0000:00:0000:00:00
WB7NNF2026-09-02 07:37:1648.41926-117.24375117km/h11966m-5.4m/s-58.2°C0%0hPa0V00:00:0000:00:0000:00:00
WB7NNF2026-09-02 07:36:5448.41303-117.2451915°110km/h12086m-5.5m/s-57.4°C0%0hPa0V00:00:0000:00:0000:00:00
WB7NNF2026-09-02 07:36:3048.40750-117.2481820°86km/h12219m-5.1m/s-56.8°C0%0hPa0V00:00:0000:00:0000:00:00
WB7NNF2026-09-02 07:36:0548.40315-117.2506315°64km/h12359m-5.5m/s-55.1°C0%0hPa0V00:00:0000:00:0000:00:00
WB7NNF2026-09-02 07:35:4248.39936-117.2514869km/h12490m-5.6m/s-54.7°C0%0hPa0V00:00:0000:00:0000:00:00
WB7NNF2026-09-02 07:35:0848.39277-117.2537519°84km/h12688m-5.8m/s-52.4°C0%0hPa0V00:00:0000:00:0000:00:00
WB7NNF2026-09-02 07:34:4748.38848-117.2553314°80km/h12823m-6.4m/s-51.3°C0%0hPa0V00:00:0000:00:0000:00:00
WB7NNF2026-09-02 07:34:0448.38050-117.2603328°80km/h13097m-6.6m/s-50.6°C0%0hPa0V00:00:0000:00:0000:00:00
WB7NNF2026-09-02 07:33:4348.37699-117.2632234°73km/h13232m-6.7m/s-50.0°C0%0hPa0V00:00:0000:00:0000:00:00
WB7NNF2026-09-02 07:33:1948.37343-117.2666033°57km/h13401m-6.7m/s-50.8°C0%0hPa0V00:00:0000:00:0000:00:00
WB7NNF2026-09-02 07:32:5048.37040-117.2691823°44km/h13600m-6.3m/s-51.0°C0%0hPa0V00:00:0000:00:0000:00:00
WB7NNF2026-09-02 07:32:2948.36830-117.2699714°46km/h13734m-6.6m/s-51.8°C0%0hPa0V00:00:0000:00:0000:00:00
WB7NNF2026-09-02 07:32:0548.36513-117.27032359°58km/h13911m-7.1m/s-52.4°C0%0hPa0V00:00:0000:00:0000:00:00
WB7NNF2026-09-02 07:26:1948.31603-117.2918429°47km/h16709m-8.8m/s-51.5°C0%0hPa0V00:00:0000:00:0000:00:00
WB7NNF2026-09-02 07:24:5548.30704-117.3023131°37km/h17486m-10.3m/s-51.0°C0%0hPa0V00:00:0000:00:0000:00:00
WB7NNF2026-09-02 07:24:2148.30351-117.3044336°57km/h17851m-11.2m/s-51.0°C0%0hPa0V00:00:0000:00:0000:00:00
WB7NNF2026-09-02 07:24:0148.30120-117.3072949°57km/h18085m-11.2m/s-52.0°C0%0hPa0V00:00:0000:00:0000:00:00
WB7NNF2026-09-02 07:20:3848.29127-117.3206438°24km/h20215m-10.5m/s-53.6°C0%0hPa0V00:00:0000:00:0000:00:00
WB7NNF2026-09-02 07:15:0748.28423-117.3289160°15km/h24318m-14.5m/s-50.2°C0%0hPa0V00:00:0000:00:0000:00:00
WB7NNF2026-09-02 07:14:4348.28399-117.3297978°16km/h24675m-15.1m/s-50.4°C0%0hPa0V00:00:0000:00:0000:00:00
WB7NNF2026-09-02 07:14:2348.28381-117.3305157°5km/h24979m-16.2m/s-51.0°C0%0hPa0V00:00:0000:00:0000:00:00
WB7NNF2026-09-02 07:14:0048.28369-117.33127117°7km/h25340m-15.5m/s-49.4°C0%0hPa0V00:00:0000:00:0000:00:00
WB7NNF2026-09-02 07:13:3948.28406-117.33173149°11km/h25671m-17.6m/s-49.1°C0%0hPa0V00:00:0000:00:0000:00:00
WB7NNF2026-09-02 07:13:1948.28463-117.33133240°22km/h26030m-16.4m/s-49.9°C0%0hPa0V00:00:0000:00:0000:00:00
WB7NNF2026-09-02 07:12:5748.28505-117.32961295°20km/h26392m-17.5m/s-51.0°C0%0hPa0V00:00:0000:00:0000:00:00
WB7NNF2026-09-02 07:12:3448.28427-117.3295348°7km/h26801m-17.2m/s-50.6°C0%0hPa0V00:00:0000:00:0000:00:00
WB7NNF2026-09-02 07:12:1448.28443-117.33051132°16km/h27181m-17.1m/s-49.7°C0%0hPa0V00:00:0000:00:0000:00:00
WB7NNF2026-09-02 07:11:5348.28532-117.33169169°11km/h27548m-19.6m/s-48.4°C0%0hPa0V00:00:0000:00:0000:00:00
WB7NNF2026-09-02 07:11:3248.28601-117.33133206°15km/h27946m-19.7m/s-47.9°C0%0hPa0V00:00:0000:00:0000:00:00
WB7NNF2026-09-02 07:11:1248.28606-117.33035348°7km/h28377m-21.5m/s-47.3°C0%0hPa0V00:00:0000:00:0000:00:00
WB7NNF2026-09-02 07:10:5148.28595-117.33042333°4km/h28804m-22.6m/s-47.6°C0%0hPa0V00:00:0000:00:0000:00:00
WB7NNF2026-09-02 07:10:3148.28543-117.3304826°26km/h29268m-21.5m/s-46.5°C0%0hPa0V00:00:0000:00:0000:00:00
WB7NNF2026-09-02 07:10:1048.28511-117.3317178°33km/h29716m-23.6m/s-46.3°C0%0hPa0V00:00:0000:00:0000:00:00
WB7NNF2026-09-02 07:09:5048.28534-117.33314132°16km/h30196m-21.0m/s-45.4°C0%0hPa0V00:00:0000:00:0000:00:00
WB7NNF2026-09-02 07:09:1248.28625-117.33494157°20km/h31098m-26.0m/s-43.4°C0%0hPa0V00:00:0000:00:0000:00:00
WB7NNF2026-09-02 07:08:4348.28661-117.3347332°9km/h31887m-27.7m/s-41.9°C0%0hPa0V00:00:0000:00:0000:00:00
WB7NNF2026-09-02 07:08:2148.28627-117.33559181°5km/h32575m-39.8m/s-41.6°C0%0hPa0V00:00:0000:00:0000:00:00
WB7NNF2026-09-02 07:08:0148.28629-117.3360798°15km/h33198m-24.0m/s-41.6°C0%0hPa0V00:00:0000:00:0000:00:00
WB7NNF2026-09-02 07:07:1548.28663-117.33957116°29km/h34534m-51.3m/s-38.8°C0%0hPa0V00:00:0000:00:0000:00:00
WB7NNF2026-09-02 07:06:5448.28768-117.34026229°18km/h35616m-54.6m/s-34.9°C0%0hPa0V00:00:0000:00:0000:00:00
WB7NNF2026-09-02 07:06:3448.28790-117.33943179°4km/h36284m6.1m/s-35.4°C0%0hPa0V00:00:0000:00:0000:00:00
WB7NNF2026-09-02 07:06:1348.28852-117.33972197°20km/h36160m6.6m/s-35.3°C0%0hPa0V00:00:0000:00:0000:00:00
WB7NNF2026-09-02 07:05:5348.28912-117.33924242°20km/h36033m6.2m/s-36.0°C0%0hPa0V00:00:0000:00:0000:00:00
WB7NNF2026-09-02 07:05:3248.28981-117.33781221°15km/h35915m5.6m/s-36.0°C0%0hPa0V00:00:0000:00:0000:00:00
WB7NNF2026-09-02 07:05:1248.29058-117.33632192°24km/h35797m5.3m/s-35.9°C0%0hPa0V00:00:0000:00:0000:00:00
WB7NNF2026-09-02 07:04:5248.29149-117.33546210°33km/h35688m5.2m/s-35.9°C0%0hPa0V00:00:0000:00:0000:00:00
WB7NNF2026-09-02 07:04:3148.29282-117.33515206°24km/h35577m5.0m/s-36.2°C0%0hPa0V00:00:0000:00:0000:00:00
WB7NNF2026-09-02 07:04:1048.29435-117.33490161°22km/h35477m5.2m/s-36.2°C0%0hPa0V00:00:0000:00:0000:00:00
WB7NNF2026-09-02 07:03:5048.29579-117.33518153°37km/h35373m5.7m/s-37.1°C0%0hPa0V00:00:0000:00:0000:00:00
WB7NNF2026-09-02 07:03:2948.29740-117.33618166°37km/h35265m5.1m/s-37.9°C0%0hPa0V00:00:0000:00:0000:00:00
WB7NNF2026-09-02 07:03:0848.29881-117.33709130°27km/h35157m6.9m/s-38.9°C0%0hPa0V00:00:0000:00:0000:00:00
WB7NNF2026-09-02 07:02:4848.30001-117.3384585°27km/h35037m4.6m/s-40.1°C0%0hPa0V00:00:0000:00:0000:00:00
WB7NNF2026-09-02 07:02:2748.30117-117.34061116°37km/h34925m5.9m/s-39.8°C0%0hPa0V00:00:0000:00:0000:00:00
WB7NNF2026-09-02 07:02:0748.30148-117.3428356°47km/h34795m4.7m/s-39.9°C0%0hPa0V00:00:0000:00:0000:00:00
WB7NNF2026-09-02 07:01:4648.30121-117.3442563°9km/h34669m7.6m/s-40.2°C0%0hPa0V00:00:0000:00:0000:00:00
WB7NNF2026-09-02 07:01:2648.30098-117.34520103°27km/h34538m6.4m/s-40.6°C0%0hPa0V00:00:0000:00:0000:00:00
WB7NNF2026-09-02 07:01:0548.30155-117.34676116°44km/h34409m6.0m/s-40.6°C0%0hPa0V00:00:0000:00:0000:00:00
WB7NNF2026-09-02 07:00:4548.30242-117.34826122°31km/h34273m6.3m/s-40.5°C0%0hPa0V00:00:0000:00:0000:00:00
WB7NNF2026-09-02 07:00:2448.30319-117.34962107°38km/h34148m6.9m/s-40.3°C0%0hPa0V00:00:0000:00:0000:00:00
WB7NNF2026-09-02 07:00:0448.30386-117.3516479°38km/h34017m5.2m/s-40.0°C0%0hPa0V00:00:0000:00:0000:00:00
WB7NNF2026-09-02 06:59:2348.30489-117.3552176°46km/h33766m7.9m/s-40.0°C0%0hPa0V00:00:0000:00:0000:00:00
WB7NNF2026-09-02 06:58:4248.30468-117.35754299°16km/h33511m5.9m/s-40.2°C0%0hPa0V00:00:0000:00:0000:00:00
WB7NNF2026-09-02 06:58:2148.30406-117.3585420°7km/h33390m5.4m/s-40.4°C0%0hPa0V00:00:0000:00:0000:00:00
WB7NNF2026-09-02 06:58:0148.30340-117.3599567°29km/h33264m6.7m/s-40.7°C0%0hPa0V00:00:0000:00:0000:00:00
WB7NNF2026-09-02 06:57:4048.30299-117.3613356°46km/h33138m7.9m/s-40.6°C0%0hPa0V00:00:0000:00:0000:00:00
WB7NNF2026-09-02 06:57:2048.30275-117.3622957°37km/h33016m5.5m/s-41.2°C0%0hPa0V00:00:0000:00:0000:00:00
WB7NNF2026-09-02 06:56:5948.30260-117.3630431°26km/h32890m6.6m/s-41.0°C0%0hPa0V00:00:0000:00:0000:00:00
WB7NNF2026-09-02 06:56:3848.30271-117.3640652°18km/h32771m5.0m/s-41.0°C0%0hPa0V00:00:0000:00:0000:00:00
WB7NNF2026-09-02 06:56:1848.30310-117.3655776°11km/h32646m5.2m/s-41.4°C0%0hPa0V00:00:0000:00:0000:00:00
WB7NNF2026-09-02 06:55:5748.30361-117.36658166°7km/h32525m6.8m/s-42.0°C0%0hPa0V00:00:0000:00:0000:00:00
WB7NNF2026-09-02 06:55:3748.30386-117.36744287°15km/h32402m5.8m/s-42.0°C0%0hPa0V00:00:0000:00:0000:00:00
WB7NNF2026-09-02 06:55:1648.30412-117.3684430°24km/h32287m5.8m/s-42.2°C0%0hPa0V00:00:0000:00:0000:00:00
WB7NNF2026-09-02 06:54:5648.30379-117.3699269°33km/h32159m5.3m/s-42.5°C0%0hPa0V00:00:0000:00:0000:00:00
WB7NNF2026-09-02 06:54:3548.30374-117.37062307°13km/h32041m0.6m/s-42.4°C0%0hPa0V00:00:0000:00:0000:00:00
WB7NNF2026-09-02 06:54:1548.30379-117.3708285°4km/h31909m5.8m/s-42.3°C0%0hPa0V00:00:0000:00:0000:00:00
WB7NNF2026-09-02 06:53:5448.30400-117.37097111°24km/h31783m4.1m/s-42.6°C0%0hPa0V00:00:0000:00:0000:00:00
WB7NNF2026-09-02 06:53:3448.30443-117.37066246°35km/h31646m5.7m/s-42.7°C0%0hPa0V00:00:0000:00:0000:00:00
WB7NNF2026-09-02 06:53:1348.30484-117.3699995°9km/h31510m8.5m/s-42.8°C0%0hPa0V00:00:0000:00:0000:00:00
WB7NNF2026-09-02 06:52:5248.30560-117.37001124°38km/h31384m5.4m/s-43.5°C0%0hPa0V00:00:0000:00:0000:00:00
WB7NNF2026-09-02 06:52:3248.30677-117.37024206°16km/h31249m6.4m/s-44.0°C0%0hPa0V00:00:0000:00:0000:00:00
WB7NNF2026-09-02 06:52:1148.30794-117.37094219°24km/h31121m2.7m/s-43.6°C0%0hPa0V00:00:0000:00:0000:00:00
WB7NNF2026-09-02 06:51:4748.30923-117.3726684°5km/h30966m-2.5m/s-43.8°C0%0hPa0V00:00:0000:00:0000:00:00
WB7NNF2026-09-02 06:51:2548.30994-117.37400356°22km/h30843m-1.9m/s-44.2°C0%0hPa0V00:00:0000:00:0000:00:00
WB7NNF2026-09-02 06:51:0248.31061-117.37490216°11km/h30704m1.2m/s-44.7°C0%0hPa0V00:00:0000:00:0000:00:00
WB7NNF2026-09-02 06:50:4248.31094-117.37615101°40km/h30584m5.4m/s-45.7°C0%0hPa0V00:00:0000:00:0000:00:00
WB7NNF2026-09-02 06:50:2148.31087-117.3768794°46km/h30462m14.0m/s-46.2°C0%0hPa0V00:00:0000:00:0000:00:00
WB7NNF2026-09-02 06:49:5948.31107-117.37779223°31km/h30330m1.9m/s-46.0°C0%0hPa0V00:00:0000:00:0000:00:00
WB7NNF2026-09-02 06:49:3848.31157-117.37856257°38km/h30214m7.7m/s-46.1°C0%0hPa0V00:00:0000:00:0000:00:00
WB7NNF2026-09-02 06:49:2048.31162-117.3797763°46km/h30086m2.3m/s-46.0°C0%0hPa0V00:00:0000:00:0000:00:00
WB7NNF2026-09-02 06:48:5748.31143-117.38121263°42km/h29960m3.8m/s-46.5°C0%0hPa0V00:00:0000:00:0000:00:00
WB7NNF2026-09-02 06:48:3748.31135-117.38229205°29km/h29823m11.9m/s-47.1°C0%0hPa0V00:00:0000:00:0000:00:00
WB7NNF2026-09-02 06:47:5648.31138-117.3844135°44km/h29553m8.0m/s-46.5°C0%0hPa0V00:00:0000:00:0000:00:00
WB7NNF2026-09-02 06:47:3548.31060-117.3855279°37km/h29426m11.7m/s-46.9°C0%0hPa0V00:00:0000:00:0000:00:00
WB7NNF2026-09-02 06:47:1348.30989-117.3858723°26km/h29289m2.1m/s-47.7°C0%0hPa0V00:00:0000:00:0000:00:00
WB7NNF2026-09-02 06:46:5248.30946-117.3855213°33km/h29162m2.8m/s-47.9°C0%0hPa0V00:00:0000:00:0000:00:00
WB7NNF2026-09-02 06:46:3048.30923-117.38491226°16km/h29018m10.4m/s-48.5°C0%0hPa0V00:00:0000:00:0000:00:00
WB7NNF2026-09-02 06:46:0948.30901-117.38427312°5km/h28899m14.2m/s-48.2°C0%0hPa0V00:00:0000:00:0000:00:00
WB7NNF2026-09-02 06:45:4748.30880-117.38355164°42km/h28766m3.9m/s-48.1°C0%0hPa0V00:00:0000:00:0000:00:00
WB7NNF2026-09-02 06:45:2648.30859-117.38316189°26km/h28641m8.7m/s-47.9°C0%0hPa0V00:00:0000:00:0000:00:00
WB7NNF2026-09-02 06:45:0548.30830-117.38264255°20km/h28518m0.2m/s-47.3°C0%0hPa0V00:00:0000:00:0000:00:00
WB7NNF2026-09-02 06:44:4248.30742-117.38157355°68km/h28384m12.6m/s-47.3°C0%0hPa0V00:00:0000:00:0000:00:00
WB7NNF2026-09-02 06:44:2148.30671-117.38006361°60km/h28246m9.2m/s-47.1°C0%0hPa0V00:00:0000:00:0000:00:00
WB7NNF2026-09-02 06:43:5948.30616-117.37832331°51km/h28122m-1.4m/s-47.4°C0%0hPa0V00:00:0000:00:0000:00:00
WB7NNF2026-09-02 06:43:3848.30632-117.37705266°47km/h27995m-4.3m/s-47.1°C0%0hPa0V00:00:0000:00:0000:00:00
WB7NNF2026-09-02 06:43:1848.30679-117.37653277°33km/h27874m-0.7m/s-47.9°C0%0hPa0V00:00:0000:00:0000:00:00
WB7NNF2026-09-02 06:42:5648.30716-117.3763669°4km/h27743m8.8m/s-48.2°C0%0hPa0V00:00:0000:00:0000:00:00
WB7NNF2026-09-02 06:42:2848.30778-117.37669145°24km/h27563m1.6m/s-48.3°C0%0hPa0V00:00:0000:00:0000:00:00
WB7NNF2026-09-02 06:41:4448.30938-117.3800475°71km/h27307m4.3m/s-49.1°C0%0hPa0V00:00:0000:00:0000:00:00
WB7NNF2026-09-02 06:41:2348.30984-117.3817859°60km/h27187m10.6m/s-49.9°C0%0hPa0V00:00:0000:00:0000:00:00
WB7NNF2026-09-02 06:40:4348.31055-117.38438148°13km/h26977m5.1m/s-50.5°C0%0hPa0V00:00:0000:00:0000:00:00
WB7NNF2026-09-02 06:40:2048.31055-117.3849573°42km/h26839m9.9m/s-50.4°C0%0hPa0V00:00:0000:00:0000:00:00
WB7NNF2026-09-02 06:39:5848.31013-117.3856139°31km/h26719m5.7m/s-50.3°C0%0hPa0V00:00:0000:00:0000:00:00
WB7NNF2026-09-02 06:39:3748.30968-117.38570201°37km/h26586m8.4m/s-49.9°C0%0hPa0V00:00:0000:00:0000:00:00
WB7NNF2026-09-02 06:39:1548.30952-117.38519257°29km/h26460m1.6m/s-50.1°C0%0hPa0V00:00:0000:00:0000:00:00
WB7NNF2026-09-02 06:38:4948.30949-117.38373251°71km/h26303m4.0m/s-50.0°C0%0hPa0V00:00:0000:00:0000:00:00
WB7NNF2026-09-02 06:38:2848.31007-117.38225221°66km/h26182m9.4m/s-49.3°C0%0hPa0V00:00:0000:00:0000:00:00
WB7NNF2026-09-02 06:38:0848.31147-117.38051207°57km/h26068m-195.2m/s-48.7°C0%0hPa0V00:00:0000:00:0000:00:00
WB7NNF2026-09-02 06:37:4648.31297-117.37957208°24km/h25928m10.7m/s-48.5°C0%0hPa0V00:00:0000:00:0000:00:00
WB7NNF2026-09-02 06:37:2048.31458-117.37930205°24km/h25775m7.5m/s-47.9°C0%0hPa0V00:00:0000:00:0000:00:00
WB7NNF2026-09-02 06:36:5948.31563-117.37993113°29km/h25658m11.0m/s-47.8°C0%0hPa0V00:00:0000:00:0000:00:00
WB7NNF2026-09-02 06:36:3748.31631-117.3817218°26km/h25539m-0.6m/s-47.6°C0%0hPa0V00:00:0000:00:0000:00:00
WB7NNF2026-09-02 06:36:1448.31682-117.3839782°27km/h25402m6.4m/s-48.4°C0%0hPa0V00:00:0000:00:0000:00:00
WB7NNF2026-09-02 06:35:5248.31726-117.385500km/h25290m9.9m/s-48.8°C0%0hPa0V00:00:0000:00:0000:00:00
WB7NNF2026-09-02 06:35:3148.31711-117.38679192°16km/h25184m-4.4m/s-50.2°C0%0hPa0V00:00:0000:00:0000:00:00
WB7NNF2026-09-02 06:35:0748.31656-117.3889363°27km/h25053m8.0m/s-50.9°C0%0hPa0V00:00:0000:00:0000:00:00
WB7NNF2026-09-02 06:34:4648.31608-117.3898220°18km/h24950m9.8m/s-51.4°C0%0hPa0V00:00:0000:00:0000:00:00
WB7NNF2026-09-02 06:34:2648.31557-117.39088235°26km/h24839m4.8m/s-51.8°C0%0hPa0V00:00:0000:00:0000:00:00
WB7NNF2026-09-02 06:33:4148.31449-117.39288334°26km/h24592m11.6m/s-53.0°C0%0hPa0V00:00:0000:00:0000:00:00
WB7NNF2026-09-02 06:33:2048.31348-117.39347354°60km/h24479m2.0m/s-53.0°C0%0hPa0V00:00:0000:00:0000:00:00
WB7NNF2026-09-02 06:32:5848.31227-117.39292330°68km/h24332m8.2m/s-53.7°C0%0hPa0V00:00:0000:00:0000:00:00
WB7NNF2026-09-02 06:32:3448.31143-117.39173303°66km/h24222m9.7m/s-53.2°C0%0hPa0V00:00:0000:00:0000:00:00
WB7NNF2026-09-02 06:32:1348.31091-117.39062269°44km/h24115m-0.8m/s-52.9°C0%0hPa0V00:00:0000:00:0000:00:00
WB7NNF2026-09-02 06:31:5248.31070-117.38981131°18km/h23984m6.7m/s-52.9°C0%0hPa0V00:00:0000:00:0000:00:00
WB7NNF2026-09-02 06:31:2948.31064-117.38979288°22km/h23870m9.4m/s-53.1°C0%0hPa0V00:00:0000:00:0000:00:00
WB7NNF2026-09-02 06:31:0548.31006-117.38995208°27km/h23736m4.8m/s-52.9°C0%0hPa0V00:00:0000:00:0000:00:00
WB7NNF2026-09-02 06:30:4448.30927-117.39036342°22km/h23620m0.5m/s-52.8°C0%0hPa0V00:00:0000:00:0000:00:00
WB7NNF2026-09-02 06:30:2148.30781-117.3913536°42km/h23503m10.0m/s-52.5°C0%0hPa0V00:00:0000:00:0000:00:00
WB7NNF2026-09-02 06:30:0148.30684-117.39203353°16km/h23397m9.4m/s-52.1°C0%0hPa0V00:00:0000:00:0000:00:00
WB7NNF2026-09-02 06:29:4048.30585-117.3925822km/h23297m9.2m/s-52.0°C0%0hPa0V00:00:0000:00:0000:00:00
WB7NNF2026-09-02 06:29:2048.30501-117.39275297°15km/h23186m-1.5m/s-52.3°C0%0hPa0V00:00:0000:00:0000:00:00
WB7NNF2026-09-02 06:28:5848.30388-117.3929016°46km/h23067m-0.3m/s-52.3°C0%0hPa0V00:00:0000:00:0000:00:00
WB7NNF2026-09-02 06:28:3548.30275-117.39290203°24km/h22951m6.5m/s-52.2°C0%0hPa0V00:00:0000:00:0000:00:00
WB7NNF2026-09-02 06:28:1248.30190-117.39242334°60km/h22835m7.0m/s-51.8°C0%0hPa0V00:00:0000:00:0000:00:00
WB7NNF2026-09-02 06:27:4948.30085-117.39128358°24km/h22725m10.9m/s-51.9°C0%0hPa0V00:00:0000:00:0000:00:00
WB7NNF2026-09-02 06:27:2848.30054-117.39031349°37km/h22611m-0.9m/s-51.3°C0%0hPa0V00:00:0000:00:0000:00:00
WB7NNF2026-09-02 06:27:0248.30102-117.38890278°47km/h22482m0.4m/s-50.8°C0%0hPa0V00:00:0000:00:0000:00:00
WB7NNF2026-09-02 06:26:3948.30168-117.38826263°5km/h22365m6.6m/s-51.3°C0%0hPa0V00:00:0000:00:0000:00:00
WB7NNF2026-09-02 06:26:1748.30171-117.38814192°26km/h22265m-2.1m/s-51.3°C0%0hPa0V00:00:0000:00:0000:00:00
WB7NNF2026-09-02 06:25:5648.30117-117.3886537°31km/h22167m8.4m/s-51.8°C0%0hPa0V00:00:0000:00:0000:00:00
WB7NNF2026-09-02 06:25:3648.30003-117.38913346°35km/h22066m-2.1m/s-51.8°C0%0hPa0V00:00:0000:00:0000:00:00
WB7NNF2026-09-02 06:25:1148.29957-117.38885338°11km/h21951m7.4m/s-52.2°C0%0hPa0V00:00:0000:00:0000:00:00
WB7NNF2026-09-02 06:24:5148.29952-117.38812285°18km/h21844m-1.8m/s-52.5°C0%0hPa0V00:00:0000:00:0000:00:00
WB7NNF2026-09-02 06:24:3048.29984-117.38818117°42km/h21730m6.7m/s-52.2°C0%0hPa0V00:00:0000:00:0000:00:00
WB7NNF2026-09-02 06:24:0848.29986-117.388667km/h21626m9.7m/s-52.9°C0%0hPa0V00:00:0000:00:0000:00:00
WB7NNF2026-09-02 06:23:4648.29966-117.38882286°20km/h21516m0.1m/s-52.7°C0%0hPa0V00:00:0000:00:0000:00:00
WB7NNF2026-09-02 06:23:2348.29952-117.3900181°20km/h21399m6.5m/s-53.1°C0%0hPa0V00:00:0000:00:0000:00:00
WB7NNF2026-09-02 06:23:0348.29938-117.39123357°22km/h21291m1.9m/s-53.2°C0%0hPa0V00:00:0000:00:0000:00:00
WB7NNF2026-09-02 06:22:4148.29888-117.39281132°37km/h21188m9.2m/s-53.0°C0%0hPa0V00:00:0000:00:0000:00:00
WB7NNF2026-09-02 06:22:2048.29813-117.3946239°15km/h21082m4.1m/s-52.9°C0%0hPa0V00:00:0000:00:0000:00:00
WB7NNF2026-09-02 06:21:5748.29718-117.3963566°13km/h20972m1.4m/s-52.8°C0%0hPa0V00:00:0000:00:0000:00:00
WB7NNF2026-09-02 06:21:3548.29637-117.3977346°49km/h20871m0.6m/s-53.0°C0%0hPa0V00:00:0000:00:0000:00:00
WB7NNF2026-09-02 06:21:1448.29575-117.3987435°35km/h20779m1.1m/s-52.7°C0%0hPa0V00:00:0000:00:0000:00:00
WB7NNF2026-09-02 06:20:5448.29534-117.39968245°7km/h20681m8.8m/s-52.3°C0%0hPa0V00:00:0000:00:0000:00:00
WB7NNF2026-09-02 06:20:3348.29516-117.40040149°24km/h20583m0.8m/s-52.0°C0%0hPa0V00:00:0000:00:0000:00:00
WB7NNF2026-09-02 06:20:1148.29493-117.40161113°18km/h20478m5.1m/s-52.2°C0%0hPa0V00:00:0000:00:0000:00:00
WB7NNF2026-09-02 06:19:4848.29449-117.4030847°31km/h20380m8.1m/s-52.6°C0%0hPa0V00:00:0000:00:0000:00:00
WB7NNF2026-09-02 06:19:2848.29335-117.4047949°46km/h20282m0.9m/s-53.2°C0%0hPa0V00:00:0000:00:0000:00:00
WB7NNF2026-09-02 06:19:0748.29216-117.40593319°31km/h20178m3.6m/s-53.4°C0%0hPa0V00:00:0000:00:0000:00:00
WB7NNF2026-09-02 06:18:4348.29114-117.40746360°40km/h20066m6.8m/s-53.8°C0%0hPa0V00:00:0000:00:0000:00:00
WB7NNF2026-09-02 06:18:2248.29032-117.4085932°38km/h19970m1.3m/s-53.8°C0%0hPa0V00:00:0000:00:0000:00:00
WB7NNF2026-09-02 06:18:0248.28959-117.40939355°4km/h19871m1.1m/s-53.7°C0%0hPa0V00:00:0000:00:0000:00:00
WB7NNF2026-09-02 06:17:4248.28847-117.4096027km/h19780m6.3m/s-53.7°C0%0hPa0V00:00:0000:00:0000:00:00
WB7NNF2026-09-02 06:17:2148.28725-117.40984346°38km/h19680m2.0m/s-53.2°C0%0hPa0V00:00:0000:00:0000:00:00
WB7NNF2026-09-02 06:17:0048.28647-117.4103564°24km/h19584m4.1m/s-53.6°C0%0hPa0V00:00:0000:00:0000:00:00
WB7NNF2026-09-02 06:16:3848.28558-117.41138356°42km/h19483m2.4m/s-53.8°C0%0hPa0V00:00:0000:00:0000:00:00
WB7NNF2026-09-02 06:16:1648.28471-117.4129483°37km/h19383m7.1m/s-53.9°C0%0hPa0V00:00:0000:00:0000:00:00
WB7NNF2026-09-02 06:15:5448.28355-117.41440351°27km/h19280m8.1m/s-53.7°C0%0hPa0V00:00:0000:00:0000:00:00
WB7NNF2026-09-02 06:15:3348.28231-117.4153860°46km/h19185m8.9m/s-53.8°C0%0hPa0V00:00:0000:00:0000:00:00
WB7NNF2026-09-02 06:15:1248.28068-117.4170220°37km/h19081m8.7m/s-53.9°C0%0hPa0V00:00:0000:00:0000:00:00
WB7NNF2026-09-02 06:14:3148.27818-117.4192735°51km/h18874m3.6m/s-52.5°C0%0hPa0V00:00:0000:00:0000:00:00
WB7NNF2026-09-02 06:14:1148.27756-117.4202378°9km/h18775m1.2m/s-52.6°C0%0hPa0V00:00:0000:00:0000:00:00
WB7NNF2026-09-02 06:13:5048.27730-117.42175115°15km/h18682m6.8m/s-52.4°C0%0hPa0V00:00:0000:00:0000:00:00
WB7NNF2026-09-02 06:13:2948.27725-117.42344117°29km/h18585m3.6m/s-51.7°C0%0hPa0V00:00:0000:00:0000:00:00
WB7NNF2026-09-02 06:13:0948.27680-117.4256729°27km/h18483m1.0m/s-51.3°C0%0hPa0V00:00:0000:00:0000:00:00
WB7NNF2026-09-02 06:12:4848.27607-117.4278688°47km/h18388m2.2m/s-51.0°C0%0hPa0V00:00:0000:00:0000:00:00
WB7NNF2026-09-02 06:12:2848.27481-117.4302811°31km/h18288m1.6m/s-51.1°C0%0hPa0V00:00:0000:00:0000:00:00
WB7NNF2026-09-02 06:12:0848.27319-117.4324753°51km/h18201m5.8m/s-50.9°C0%0hPa0V00:00:0000:00:0000:00:00
WB7NNF2026-09-02 06:11:4748.27114-117.4353631°46km/h18108m6.5m/s-51.4°C0%0hPa0V00:00:0000:00:0000:00:00
WB7NNF2026-09-02 06:11:2648.26875-117.4384550°78km/h18019m6.2m/s-51.8°C0%0hPa0V00:00:0000:00:0000:00:00
WB7NNF2026-09-02 06:11:0448.26586-117.4411233km/h17923m2.0m/s-51.6°C0%0hPa0V00:00:0000:00:0000:00:00
WB7NNF2026-09-02 06:10:4348.26345-117.4427035°71km/h17834m6.3m/s-51.3°C0%0hPa0V00:00:0000:00:0000:00:00
WB7NNF2026-09-02 06:10:2348.26099-117.44375355°26km/h17743m8.8m/s-50.9°C0%0hPa0V00:00:0000:00:0000:00:00
WB7NNF2026-09-02 06:10:0248.25903-117.44394345°26km/h17652m0.6m/s-50.5°C0%0hPa0V00:00:0000:00:0000:00:00
WB7NNF2026-09-02 06:09:2148.25540-117.4449216°40km/h17463m5.1m/s-50.6°C0%0hPa0V00:00:0000:00:0000:00:00
WB7NNF2026-09-02 06:09:0148.25352-117.4473139°46km/h17359m6.8m/s-51.1°C0%0hPa0V00:00:0000:00:0000:00:00
WB7NNF2026-09-02 06:08:4048.25124-117.4500730°77km/h17268m3.0m/s-51.5°C0%0hPa0V00:00:0000:00:0000:00:00
WB7NNF2026-09-02 06:08:2048.24859-117.4530828°71km/h17175m5.9m/s-52.1°C0%0hPa0V00:00:0000:00:0000:00:00
WB7NNF2026-09-02 06:07:5948.24605-117.4552117°55km/h17086m3.0m/s-52.4°C0%0hPa0V00:00:0000:00:0000:00:00
WB7NNF2026-09-02 06:07:3948.24368-117.4574442°57km/h16996m2.0m/s-53.1°C0%0hPa0V00:00:0000:00:0000:00:00
WB7NNF2026-09-02 06:07:1848.24151-117.4590862km/h16904m2.7m/s-52.6°C0%0hPa0V00:00:0000:00:0000:00:00
WB7NNF2026-09-02 06:06:5648.23946-117.46084356°51km/h16801m3.2m/s-52.2°C0%0hPa0V00:00:0000:00:0000:00:00
WB7NNF2026-09-02 06:06:3548.23753-117.4628655°38km/h16709m4.3m/s-52.8°C0%0hPa0V00:00:0000:00:0000:00:00
WB7NNF2026-09-02 06:06:1348.23528-117.4651016°46km/h16616m1.2m/s-52.3°C0%0hPa0V00:00:0000:00:0000:00:00
WB7NNF2026-09-02 06:05:5248.23287-117.4671228°55km/h16518m5.8m/s-51.9°C0%0hPa0V00:00:0000:00:0000:00:00
WB7NNF2026-09-02 06:05:3248.23020-117.4685141°57km/h16423m6.4m/s-51.7°C0%0hPa0V00:00:0000:00:0000:00:00
WB7NNF2026-09-02 06:05:1148.22757-117.4698562km/h16327m5.5m/s-51.7°C0%0hPa0V00:00:0000:00:0000:00:00
WB7NNF2026-09-02 06:04:5148.22487-117.4717841°75km/h16228m3.4m/s-51.3°C0%0hPa0V00:00:0000:00:0000:00:00
WB7NNF2026-09-02 06:04:3048.22227-117.4740114°66km/h16135m3.1m/s-51.2°C0%0hPa0V00:00:0000:00:0000:00:00
WB7NNF2026-09-02 06:04:0848.21915-117.4763615°49km/h16037m2.6m/s-50.8°C0%0hPa0V00:00:0000:00:0000:00:00
WB7NNF2026-09-02 06:03:4748.21598-117.4780416°71km/h15942m4.4m/s-51.1°C0%0hPa0V00:00:0000:00:0000:00:00
WB7NNF2026-09-02 06:03:2748.21265-117.4787718°66km/h15847m2.4m/s-51.6°C0%0hPa0V00:00:0000:00:0000:00:00
WB7NNF2026-09-02 06:03:0648.20954-117.4794830°58km/h15758m6.1m/s-51.6°C0%0hPa0V00:00:0000:00:0000:00:00
WB7NNF2026-09-02 06:02:4448.20658-117.48010350°57km/h15671m6.7m/s-51.9°C0%0hPa0V00:00:0000:00:0000:00:00
WB7NNF2026-09-02 06:02:2448.20398-117.4805426°58km/h15589m3.9m/s-52.0°C0%0hPa0V00:00:0000:00:0000:00:00
WB7NNF2026-09-02 06:02:0348.20088-117.4813111°66km/h15512m5.3m/s-52.1°C0%0hPa0V00:00:0000:00:0000:00:00
WB7NNF2026-09-02 06:01:4248.19797-117.48187347°40km/h15433m5.1m/s-52.1°C0%0hPa0V00:00:0000:00:0000:00:00
WB7NNF2026-09-02 06:01:2148.19533-117.48195359°53km/h15349m6.1m/s-52.3°C0%0hPa0V00:00:0000:00:0000:00:00
WB7NNF2026-09-02 06:01:0148.19290-117.4819516°24km/h15261m4.7m/s-52.8°C0%0hPa0V00:00:0000:00:0000:00:00
WB7NNF2026-09-02 06:00:4048.19100-117.4826219°46km/h15176m3.8m/s-53.1°C0%0hPa0V00:00:0000:00:0000:00:00
WB7NNF2026-09-02 06:00:2048.18941-117.4837327°33km/h15084m5.4m/s-52.6°C0%0hPa0V00:00:0000:00:0000:00:00
WB7NNF2026-09-02 05:59:5948.18788-117.4850326°49km/h14999m4.2m/s-52.0°C0%0hPa0V00:00:0000:00:0000:00:00
WB7NNF2026-09-02 05:59:3948.18633-117.4867524°38km/h14907m5.7m/s-51.5°C0%0hPa0V00:00:0000:00:0000:00:00
WB7NNF2026-09-02 05:59:1848.18464-117.4883051°53km/h14822m5.7m/s-50.9°C0%0hPa0V00:00:0000:00:0000:00:00
WB7NNF2026-09-02 05:58:5848.18277-117.4901113°57km/h14731m3.5m/s-50.5°C0%0hPa0V00:00:0000:00:0000:00:00
WB7NNF2026-09-02 05:58:3748.18067-117.4924237°60km/h14639m5.5m/s-50.4°C0%0hPa0V00:00:0000:00:0000:00:00
WB7NNF2026-09-02 05:58:1748.17813-117.4947825°68km/h14542m2.6m/s-51.0°C0%0hPa0V00:00:0000:00:0000:00:00
WB7NNF2026-09-02 05:57:5648.17512-117.4975219°49km/h14458m5.0m/s-51.3°C0%0hPa0V00:00:0000:00:0000:00:00
WB7NNF2026-09-02 05:57:3648.17193-117.4997612°66km/h14366m6.1m/s-51.0°C0%0hPa0V00:00:0000:00:0000:00:00
WB7NNF2026-09-02 05:57:1648.16880-117.5011621°80km/h14278m4.6m/s-50.7°C0%0hPa0V00:00:0000:00:0000:00:00
WB7NNF2026-09-02 05:56:5548.16575-117.5025022°53km/h14188m5.2m/s-50.3°C0%0hPa0V00:00:0000:00:0000:00:00
WB7NNF2026-09-02 05:56:3448.16280-117.5036847km/h14099m3.4m/s-50.5°C0%0hPa0V00:00:0000:00:0000:00:00
WB7NNF2026-09-02 05:56:1248.15966-117.5051711°38km/h14010m3.9m/s-50.5°C0%0hPa0V00:00:0000:00:0000:00:00
WB7NNF2026-09-02 05:55:5148.15674-117.5068832°62km/h13931m3.5m/s-50.1°C0%0hPa0V00:00:0000:00:0000:00:00
WB7NNF2026-09-02 05:55:3148.15359-117.5083234°68km/h13847m4.4m/s-50.9°C0%0hPa0V00:00:0000:00:0000:00:00
WB7NNF2026-09-02 05:55:1048.15070-117.5094112°46km/h13769m4.1m/s-51.4°C0%0hPa0V00:00:0000:00:0000:00:00
WB7NNF2026-09-02 05:54:4848.14808-117.5107625°64km/h13683m2.4m/s-51.8°C0%0hPa0V00:00:0000:00:0000:00:00
WB7NNF2026-09-02 05:54:2748.14568-117.5125333°46km/h13597m3.0m/s-51.3°C0%0hPa0V00:00:0000:00:0000:00:00
WB7NNF2026-09-02 05:54:0548.14275-117.5146533°68km/h13515m2.7m/s-51.1°C0%0hPa0V00:00:0000:00:0000:00:00
WB7NNF2026-09-02 05:53:4348.14013-117.5172535°69km/h13434m5.1m/s-51.1°C0%0hPa0V00:00:0000:00:0000:00:00
WB7NNF2026-09-02 05:53:2348.13755-117.5200345°53km/h13350m2.4m/s-50.8°C0%0hPa0V00:00:0000:00:0000:00:00
WB7NNF2026-09-02 05:53:0148.13466-117.5229732°84km/h13267m3.4m/s-50.6°C0%0hPa0V00:00:0000:00:0000:00:00
WB7NNF2026-09-02 05:52:4148.13131-117.5261823°95km/h13171m4.3m/s-50.4°C0%0hPa0V00:00:0000:00:0000:00:00
WB7NNF2026-09-02 05:52:1948.12721-117.5294224°97km/h13077m6.1m/s-51.1°C0%0hPa0V00:00:0000:00:0000:00:00
WB7NNF2026-09-02 05:51:5848.12209-117.5322610°111km/h12982m3.3m/s-52.2°C0%0hPa0V00:00:0000:00:0000:00:00
WB7NNF2026-09-02 05:51:3748.11747-117.53417100km/h12895m4.5m/s-52.5°C0%0hPa0V00:00:0000:00:0000:00:00
WB7NNF2026-09-02 05:51:1748.11354-117.5352911°53km/h12817m3.5m/s-52.7°C0%0hPa0V00:00:0000:00:0000:00:00
WB7NNF2026-09-02 05:50:5548.10981-117.5363873km/h12733m4.6m/s-52.7°C0%0hPa0V00:00:0000:00:0000:00:00
WB7NNF2026-09-02 05:50:3448.10639-117.53742358°80km/h12660m5.0m/s-53.3°C0%0hPa0V00:00:0000:00:0000:00:00
WB7NNF2026-09-02 05:49:2748.09315-117.5410819°77km/h12428m4.4m/s-56.4°C0%0hPa0V00:00:0000:00:0000:00:00
WB7NNF2026-09-02 05:49:0648.08920-117.5429230°66km/h12347m2.0m/s-56.7°C0%0hPa0V00:00:0000:00:0000:00:00
WB7NNF2026-09-02 05:48:4548.08493-117.5449629°84km/h12255m3.0m/s-57.6°C0%0hPa0V00:00:0000:00:0000:00:00
WB7NNF2026-09-02 05:48:0348.07369-117.54674122km/h12006m3.6m/s-57.9°C0%0hPa0V00:00:0000:00:0000:00:00
WB7NNF2026-09-02 05:47:2148.06127-117.54482102km/h11820m4.0m/s-57.2°C0%0hPa0V00:00:0000:00:0000:00:00
WB7NNF2026-09-02 05:47:0148.05542-117.54403353°106km/h11726m5.7m/s-56.5°C0%0hPa0V00:00:0000:00:0000:00:00
WB7NNF2026-09-02 05:46:4048.05008-117.54356359°110km/h11640m2.8m/s-56.2°C0%0hPa0V00:00:0000:00:0000:00:00
WB7NNF2026-09-02 05:46:2048.04497-117.5431788km/h11556m4.8m/s-57.5°C0%0hPa0V00:00:0000:00:0000:00:00
WB7NNF2026-09-02 05:45:5948.04063-117.54269353°86km/h11473m4.1m/s-57.4°C0%0hPa0V00:00:0000:00:0000:00:00
WB7NNF2026-09-02 05:45:3948.03654-117.54213358°88km/h11385m2.3m/s-57.5°C0%0hPa0V00:00:0000:00:0000:00:00
WB7NNF2026-09-02 05:45:1948.03280-117.5422382km/h11303m6.2m/s-56.9°C0%0hPa0V00:00:0000:00:0000:00:00
WB7NNF2026-09-02 05:44:5848.02886-117.5424373km/h11214m5.4m/s-56.2°C0%0hPa0V00:00:0000:00:0000:00:00
WB7NNF2026-09-02 05:44:3748.02491-117.5429769km/h11129m3.8m/s-55.7°C0%0hPa0V00:00:0000:00:0000:00:00
WB7NNF2026-09-02 05:44:1748.02062-117.54355358°88km/h11042m4.0m/s-55.2°C0%0hPa0V00:00:0000:00:0000:00:00
WB7NNF2026-09-02 05:43:5648.01642-117.5444515°82km/h10961m4.5m/s-54.5°C0%0hPa0V00:00:0000:00:0000:00:00
WB7NNF2026-09-02 05:43:3648.01193-117.5453612°99km/h10878m3.2m/s-53.9°C0%0hPa0V00:00:0000:00:0000:00:00
WB7NNF2026-09-02 05:43:1548.00751-117.5461782km/h10805m4.3m/s-53.3°C0%0hPa0V00:00:0000:00:0000:00:00
WB7NNF2026-09-02 05:42:5548.00286-117.5469080km/h10723m2.5m/s-52.8°C0%0hPa0V00:00:0000:00:0000:00:00
WB7NNF2026-09-02 05:42:3447.99830-117.5474911°102km/h10641m5.1m/s-52.2°C0%0hPa0V00:00:0000:00:0000:00:00
WB7NNF2026-09-02 05:41:5347.98959-117.54775353°80km/h10429m3.4m/s-50.3°C0%0hPa0V00:00:0000:00:0000:00:00
WB7NNF2026-09-02 05:41:3247.98557-117.54798357°80km/h10342m4.5m/s-49.6°C0%0hPa0V00:00:0000:00:0000:00:00
WB7NNF2026-09-02 05:41:1247.98136-117.54802357°78km/h10258m3.5m/s-48.9°C0%0hPa0V00:00:0000:00:0000:00:00
WB7NNF2026-09-02 05:40:5147.97736-117.54800344°82km/h10171m3.0m/s-48.1°C0%0hPa0V00:00:0000:00:0000:00:00
WB7NNF2026-09-02 05:40:3147.97299-117.54793355°91km/h10088m4.2m/s-47.4°C0%0hPa0V00:00:0000:00:0000:00:00
WB7NNF2026-09-02 05:40:1047.96878-117.54768353°88km/h10006m2.8m/s-46.7°C0%0hPa0V00:00:0000:00:0000:00:00
WB7NNF2026-09-02 05:39:5047.96447-117.5472693km/h9919m3.7m/s-45.9°C0%0hPa0V00:00:0000:00:0000:00:00
WB7NNF2026-09-02 05:39:2947.96006-117.54680358°100km/h9834m2.6m/s-45.2°C0%0hPa0V00:00:0000:00:0000:00:00
WB7NNF2026-09-02 05:39:0747.95568-117.5463682km/h9751m2.6m/s-44.5°C0%0hPa0V00:00:0000:00:0000:00:00
WB7NNF2026-09-02 05:38:4547.95108-117.5457484km/h9658m5.4m/s-43.7°C0%0hPa0V00:00:0000:00:0000:00:00
WB7NNF2026-09-02 05:38:2447.94649-117.54536352°86km/h9566m3.5m/s-42.9°C0%0hPa0V00:00:0000:00:0000:00:00
WB7NNF2026-09-02 05:38:0347.94238-117.54506352°88km/h9482m3.0m/s-42.2°C0%0hPa0V00:00:0000:00:0000:00:00
WB7NNF2026-09-02 05:37:4347.93810-117.54482356°86km/h9392m2.9m/s-41.3°C0%0hPa0V00:00:0000:00:0000:00:00
WB7NNF2026-09-02 05:37:2147.93377-117.5444982km/h9299m5.5m/s-40.5°C0%0hPa0V00:00:0000:00:0000:00:00
WB7NNF2026-09-02 05:37:0047.92917-117.54422352°88km/h9198m3.5m/s-39.7°C0%0hPa0V00:00:0000:00:0000:00:00
WB7NNF2026-09-02 05:36:3647.92405-117.54373358°88km/h9091m5.1m/s-38.8°C0%0hPa0V00:00:0000:00:0000:00:00
WB7NNF2026-09-02 05:36:1547.91959-117.54311353°80km/h9001m3.5m/s-38.1°C0%0hPa0V00:00:0000:00:0000:00:00
WB7NNF2026-09-02 05:35:5347.91521-117.54250351°88km/h8908m5.2m/s-37.3°C0%0hPa0V00:00:0000:00:0000:00:00
WB7NNF2026-09-02 05:35:3247.91085-117.54176357°82km/h8816m5.1m/s-36.6°C0%0hPa0V00:00:0000:00:0000:00:00
WB7NNF2026-09-02 05:35:1247.90650-117.54116359°80km/h8722m5.2m/s-35.8°C0%0hPa0V00:00:0000:00:0000:00:00
WB7NNF2026-09-02 05:34:5147.90232-117.54060358°86km/h8627m5.4m/s-35.0°C0%0hPa0V00:00:0000:00:0000:00:00
WB7NNF2026-09-02 05:34:3147.89792-117.5400882km/h8536m3.3m/s-34.2°C0%0hPa0V00:00:0000:00:0000:00:00
WB7NNF2026-09-02 05:34:1047.89370-117.53962356°82km/h8448m3.1m/s-33.4°C0%0hPa0V00:00:0000:00:0000:00:00
WB7NNF2026-09-02 05:33:5047.88924-117.53937352°84km/h8361m5.5m/s-32.7°C0%0hPa0V00:00:0000:00:0000:00:00
WB7NNF2026-09-02 05:33:2947.88502-117.53899100km/h8279m3.9m/s-32.0°C0%0hPa0V00:00:0000:00:0000:00:00
WB7NNF2026-09-02 05:33:0947.88066-117.53874354°77km/h8191m2.6m/s-31.3°C0%0hPa0V00:00:0000:00:0000:00:00
WB7NNF2026-09-02 05:32:4847.87629-117.53861359°78km/h8108m4.2m/s-30.6°C0%0hPa0V00:00:0000:00:0000:00:00
WB7NNF2026-09-02 05:32:2747.87199-117.53886358°80km/h8028m7.6m/s-30.1°C0%0hPa0V00:00:0000:00:0000:00:00
WB7NNF2026-09-02 05:32:0747.86764-117.5393988km/h7936m3.0m/s-29.7°C0%0hPa0V00:00:0000:00:0000:00:00
WB7NNF2026-09-02 05:31:4647.86348-117.54007358°89km/h7868m2.7m/s-29.4°C0%0hPa0V00:00:0000:00:0000:00:00
WB7NNF2026-09-02 05:31:2647.85917-117.5407782km/h7789m4.7m/s-28.9°C0%0hPa0V00:00:0000:00:0000:00:00
WB7NNF2026-09-02 05:31:0547.85514-117.5417613°86km/h7709m5.4m/s-28.4°C0%0hPa0V00:00:0000:00:0000:00:00
WB7NNF2026-09-02 05:30:4547.85088-117.5431313°88km/h7628m3.6m/s-27.7°C0%0hPa0V00:00:0000:00:0000:00:00
WB7NNF2026-09-02 05:30:2347.84671-117.5445314°89km/h7545m4.2m/s-27.0°C0%0hPa0V00:00:0000:00:0000:00:00
WB7NNF2026-09-02 05:30:0247.84254-117.5461516°82km/h7462m4.3m/s-26.5°C0%0hPa0V00:00:0000:00:0000:00:00
WB7NNF2026-09-02 05:29:4147.83831-117.5480216°84km/h7369m4.2m/s-26.1°C0%0hPa0V00:00:0000:00:0000:00:00
WB7NNF2026-09-02 05:29:2047.83441-117.5502715°82km/h7274m3.6m/s-25.3°C0%0hPa0V00:00:0000:00:0000:00:00
WB7NNF2026-09-02 05:28:5747.83044-117.5528620°75km/h7182m5.2m/s-24.8°C0%0hPa0V00:00:0000:00:0000:00:00
WB7NNF2026-09-02 05:28:3647.82674-117.5550124°80km/h7096m5.0m/s-24.1°C0%0hPa0V00:00:0000:00:0000:00:00
WB7NNF2026-09-02 05:28:1647.82331-117.5570120°68km/h7015m4.6m/s-23.7°C0%0hPa0V00:00:0000:00:0000:00:00
WB7NNF2026-09-02 05:27:5547.81989-117.5590119°75km/h6930m4.1m/s-23.6°C0%0hPa0V00:00:0000:00:0000:00:00
WB7NNF2026-09-02 05:27:3547.81664-117.5609021°73km/h6851m3.6m/s-23.7°C0%0hPa0V00:00:0000:00:0000:00:00
WB7NNF2026-09-02 05:27:1447.81312-117.5627727°71km/h6766m4.2m/s-23.3°C0%0hPa0V00:00:0000:00:0000:00:00
WB7NNF2026-09-02 05:26:5247.80962-117.5646015°68km/h6682m3.6m/s-22.7°C0%0hPa0V00:00:0000:00:0000:00:00
WB7NNF2026-09-02 05:26:3147.80611-117.5665327°69km/h6593m3.8m/s-22.0°C0%0hPa0V00:00:0000:00:0000:00:00
WB7NNF2026-09-02 05:26:0947.80277-117.5683417°69km/h6510m4.0m/s-21.3°C0%0hPa0V00:00:0000:00:0000:00:00
WB7NNF2026-09-02 05:25:4947.79952-117.5701422°66km/h6420m3.7m/s-20.5°C0%0hPa0V00:00:0000:00:0000:00:00
WB7NNF2026-09-02 05:25:1447.79401-117.5731916°75km/h6293m2.4m/s-19.4°C0%0hPa0V00:00:0000:00:0000:00:00
WB7NNF2026-09-02 05:24:5447.79082-117.5748420°53km/h6213m2.5m/s-18.7°C0%0hPa0V00:00:0000:00:0000:00:00
WB7NNF2026-09-02 05:24:3347.78790-117.5762958km/h6135m3.6m/s-18.2°C0%0hPa0V00:00:0000:00:0000:00:00
WB7NNF2026-09-02 05:24:1347.78472-117.5776728°47km/h6057m4.5m/s-17.6°C0%0hPa0V00:00:0000:00:0000:00:00
WB7NNF2026-09-02 05:23:5247.78184-117.5786220°51km/h5975m4.2m/s-17.0°C0%0hPa0V00:00:0000:00:0000:00:00
WB7NNF2026-09-02 05:23:3247.77879-117.5796060km/h5898m4.5m/s-16.5°C0%0hPa0V00:00:0000:00:0000:00:00
WB7NNF2026-09-02 05:23:0947.77556-117.5803864km/h5821m3.1m/s-15.8°C0%0hPa0V00:00:0000:00:0000:00:00
WB7NNF2026-09-02 05:22:3647.77092-117.5814716°53km/h5702m3.4m/s-15.0°C0%0hPa0V00:00:0000:00:0000:00:00
WB7NNF2026-09-02 05:22:1547.76820-117.58213358°47km/h5633m2.2m/s-14.6°C0%0hPa0V00:00:0000:00:0000:00:00
WB7NNF2026-09-02 05:21:5547.76527-117.5829626°60km/h5558m2.5m/s-14.1°C0%0hPa0V00:00:0000:00:0000:00:00
WB7NNF2026-09-02 05:21:3447.76230-117.5838314°55km/h5489m3.9m/s-13.5°C0%0hPa0V00:00:0000:00:0000:00:00
WB7NNF2026-09-02 05:21:1447.75950-117.58419357°71km/h5411m3.9m/s-13.1°C0%0hPa0V00:00:0000:00:0000:00:00
WB7NNF2026-09-02 05:20:2247.75240-117.5844316°57km/h5213m3.7m/s-12.4°C0%0hPa0V00:00:0000:00:0000:00:00
WB7NNF2026-09-02 05:19:5947.74927-117.5847057km/h5123m2.5m/s-11.9°C0%0hPa0V00:00:0000:00:0000:00:00
WB7NNF2026-09-02 05:19:3847.74686-117.5851111°57km/h5050m4.3m/s-11.6°C0%0hPa0V00:00:0000:00:0000:00:00
WB7NNF2026-09-02 05:19:1447.74416-117.58558347°42km/h4953m2.8m/s-11.0°C0%0hPa0V00:00:0000:00:0000:00:00
WB7NNF2026-09-02 05:18:5447.74183-117.5858151km/h4846m4.4m/s-10.0°C0%0hPa0V00:00:0000:00:0000:00:00
WB7NNF2026-09-02 05:18:3447.73952-117.5867635°38km/h4746m6.1m/s-9.1°C0%0hPa0V00:00:0000:00:0000:00:00
WB7NNF2026-09-02 05:18:1347.73744-117.5876440km/h4641m3.6m/s-8.1°C0%0hPa0V00:00:0000:00:0000:00:00
WB7NNF2026-09-02 05:17:5247.73544-117.5889323°55km/h4527m5.6m/s-7.2°C0%0hPa0V00:00:0000:00:0000:00:00
WB7NNF2026-09-02 05:17:3047.73332-117.5912924°49km/h4419m4.7m/s-6.3°C0%0hPa0V00:00:0000:00:0000:00:00
WB7NNF2026-09-02 05:17:0847.73158-117.5939528°38km/h4304m4.5m/s-5.4°C0%0hPa0V00:00:0000:00:0000:00:00
WB7NNF2026-09-02 05:16:4747.72963-117.5965417°46km/h4207m4.4m/s-4.6°C0%0hPa0V00:00:0000:00:0000:00:00
WB7NNF2026-09-02 05:16:1347.72594-117.5999221°44km/h4036m4.0m/s-3.1°C0%0hPa0V00:00:0000:00:0000:00:00


GPX KML Map

© wettersonde.net (DO2JMG) - 2026  -  -